Αρχική σελίδα
METAR-TAF:

METAR-TAF

Αεροδρόμια :

Wrigley, Βορειοδυτικά Εδάφη, Καναδάς

γεωγραφικό πλάτος: 63-13N, γεωγραφικό μήκος: 123-26W, υψόμετρο: 150 μ

Παρών καιρός

Η αναφορά έγινε 14 ώρες και 41 λεπτά πριν, στις 23:00 UTC
Ήπιος άνεμος
Θερμοκρασία -19°C
Υγρασία 84%
Πίεση 1016 hPa
Ορατότητα: 24.1 χλμ
Αρκετά νέφη σε ύψος 10000 πόδια

METAR: CYWY 182300Z 00000KT 15SM BKN100 M19/M21 A2999 RMK AC5 LAST STFD OBS/NXT 191500Z SLP176

Χρόνος: 06:41 (13:41 UTC)


TAF: λείπει

Μετεωρολογικές αναφορές και προγνώσεις για περισσότερα από 4000 αεροδρόμια (δελτία METAR και TAF).

Οι διαθέσιμοι σταθμοί απεικονίζονται στο χάρτη με κίτρινες και κόκκινες κουκκίδες.

Μετακινήστε το ποντίκι πάνω από τις κουκκίδες για να δείτε το όνομα του σταθμού.

Στη συνέχεια, κάντε κλικ για να δείτε τις μετεωρολογικές αναφορές και τις προγνώσεις καιρού.

Για να αλλάξετε το χάρτη: κάντε κλικ στα πράσινα κουμπιά με τον μαύρο σταυρό για να ζουμάρετε, στο πράσινο κουμπί με την παύλα για να αφαιρέσετε το ζουμ ή στα πράσινα βέλη για να αντιπαραβάλλετε χάρτες.


METAR-TAF: